createdAt,value
2022-09-28T00:01:35.586Z,99185.44
2022-09-28T00:04:09.973Z,99180.13
2022-09-28T00:06:44.186Z,99183.66
2022-09-28T00:09:19.318Z,99184.38
2022-09-28T00:11:57.105Z,99190.41
2022-09-28T00:14:32.446Z,99181.88
2022-09-28T00:17:06.415Z,99181.12
2022-09-28T00:19:41.178Z,99183.91
2022-09-28T00:22:15.170Z,99178.63
2022-09-28T00:24:49.512Z,99178.06
2022-09-28T00:27:25.071Z,99191.41
2022-09-28T00:30:02.715Z,99194.94
2022-09-28T00:32:37.499Z,99195.34
2022-09-28T00:35:12.017Z,99191.34
2022-09-28T00:37:48.351Z,99181.25
2022-09-28T00:40:22.783Z,99178.28
2022-09-28T00:42:58.243Z,99184.81
2022-09-28T00:45:32.815Z,99187.56
2022-09-28T00:48:07.033Z,99183.56
2022-09-28T00:50:41.489Z,99184.31
2022-09-28T00:53:19.239Z,99198.72
2022-09-28T00:55:56.743Z,99198.09
2022-09-28T00:58:35.735Z,99208.94
2022-09-28T01:01:10.302Z,99202.72
2022-09-28T01:03:45.581Z,99204.72
2022-09-28T01:06:22.078Z,99213.94
2022-09-28T01:09:02.605Z,99197.44
2022-09-28T01:11:40.539Z,99203.97
2022-09-28T01:14:18.110Z,99198.81
2022-09-28T01:17:00.946Z,99200.06
2022-09-28T01:20:07.627Z,99201.13
2022-09-28T01:23:21.251Z,99205.69
2022-09-28T01:25:59.519Z,99221.28
2022-09-28T01:28:35.490Z,99219.75
2022-09-28T01:31:13.786Z,99222.47
2022-09-28T01:33:53.922Z,99218.97
2022-09-28T01:36:34.904Z,99228.25
2022-09-28T01:39:14.450Z,99213.75
2022-09-28T01:41:53.373Z,99227.97
2022-09-28T01:44:32.589Z,99224.13
2022-09-28T01:47:10.534Z,99221.25
2022-09-28T01:49:49.404Z,99218.84
2022-09-28T01:52:28.050Z,99223.59
2022-09-28T01:55:11.879Z,99215.81
2022-09-28T01:57:51.539Z,99219.56
2022-09-28T02:00:28.997Z,99220.97
2022-09-28T02:03:13.894Z,99220.00
2022-09-28T02:05:54.790Z,99225.25
2022-09-28T02:08:34.859Z,99218.03
2022-09-28T02:11:15.370Z,99232.88
2022-09-28T02:13:54.035Z,99228.44
2022-09-28T02:16:35.622Z,99235.81
2022-09-28T02:19:13.939Z,99243.75
2022-09-28T02:21:55.151Z,99244.69
2022-09-28T02:24:36.527Z,99241.19
2022-09-28T02:27:16.752Z,99234.88
2022-09-28T02:29:52.161Z,99236.44
2022-09-28T02:32:32.903Z,99237.97
2022-09-28T02:35:09.354Z,99234.97
2022-09-28T02:37:43.871Z,99228.94
2022-09-28T02:40:21.671Z,99228.94
2022-09-28T02:43:06.465Z,99222.91
2022-09-28T02:45:51.412Z,99222.19
2022-09-28T02:49:04.840Z,99218.97
2022-09-28T02:51:48.078Z,99219.81
2022-09-28T02:54:38.381Z,99221.94
2022-09-28T02:57:25.042Z,99237.06
2022-09-28T03:00:08.084Z,99235.72
2022-09-28T03:02:51.845Z,99245.22
2022-09-28T03:05:38.420Z,99241.75
2022-09-28T03:08:21.073Z,99233.97
2022-09-28T03:11:00.728Z,99246.72
2022-09-28T03:13:36.429Z,99246.50
2022-09-28T03:16:12.477Z,99236.78
2022-09-28T03:18:47.839Z,99241.25
2022-09-28T03:21:23.553Z,99239.84
2022-09-28T03:23:58.112Z,99240.13
2022-09-28T03:26:32.141Z,99246.06
2022-09-28T03:29:06.766Z,99249.88
2022-09-28T03:31:40.905Z,99258.91
2022-09-28T03:34:15.430Z,99259.13
2022-09-28T03:36:50.915Z,99263.88
2022-09-28T03:39:25.799Z,99256.81
2022-09-28T03:42:01.476Z,99259.28
2022-09-28T03:44:36.597Z,99252.53
2022-09-28T03:47:10.747Z,99253.72
2022-09-28T03:49:45.691Z,99246.47
2022-09-28T03:52:21.155Z,99238.78
2022-09-28T03:54:55.652Z,99240.78
2022-09-28T03:57:29.689Z,99239.81
2022-09-28T04:00:05.216Z,99228.47
2022-09-28T04:02:47.432Z,99241.97
2022-09-28T04:05:21.833Z,99240.22
2022-09-28T04:07:57.885Z,99232.47
2022-09-28T04:10:32.504Z,99230.94
2022-09-28T04:13:06.559Z,99225.94
2022-09-28T04:15:41.139Z,99226.22
2022-09-28T04:18:15.270Z,99226.63
2022-09-28T04:21:00.268Z,99213.81
2022-09-28T04:23:36.652Z,99214.03
2022-09-28T04:26:17.539Z,99203.53
2022-09-28T04:29:08.780Z,99220.28
2022-09-28T04:31:45.770Z,99223.50
2022-09-28T04:34:22.694Z,99225.88
2022-09-28T04:36:57.146Z,99228.78
2022-09-28T04:39:33.430Z,99225.63
2022-09-28T04:42:08.042Z,99228.06
2022-09-28T04:44:42.175Z,99223.91
2022-09-28T04:47:16.582Z,99221.88
2022-09-28T04:49:52.773Z,99225.31
2022-09-28T04:52:27.871Z,99231.37
2022-09-28T04:55:03.271Z,99229.22
2022-09-28T04:57:37.750Z,99228.19
2022-09-28T05:00:13.264Z,99232.66
2022-09-28T05:02:51.832Z,99233.69
2022-09-28T05:05:27.004Z,99231.87
2022-09-28T05:08:02.133Z,99236.03
2022-09-28T05:10:40.451Z,99248.03
2022-09-28T05:13:15.567Z,99248.13
2022-09-28T05:15:58.068Z,99247.44
2022-09-28T05:18:34.122Z,99247.41
2022-09-28T05:21:12.828Z,99247.09
2022-09-28T05:23:48.638Z,99260.69
2022-09-28T05:26:24.541Z,99255.00
2022-09-28T05:28:58.957Z,99249.97
2022-09-28T05:31:39.216Z,99246.09
2022-09-28T05:34:13.841Z,99241.69
2022-09-28T05:36:48.363Z,99240.47
2022-09-28T05:39:24.350Z,99237.09
2022-09-28T05:41:59.737Z,99243.75
2022-09-28T05:44:34.097Z,99236.81
2022-09-28T05:47:08.553Z,99244.03
2022-09-28T05:49:43.162Z,99240.81
2022-09-28T05:52:18.848Z,99241.91
2022-09-28T05:54:53.166Z,99249.28
2022-09-28T05:57:28.642Z,99245.16
2022-09-28T06:00:03.612Z,99243.00
2022-09-28T06:02:46.581Z,99255.81
2022-09-28T06:05:21.097Z,99248.84
2022-09-28T06:07:57.889Z,99236.03
2022-09-28T06:10:33.100Z,99233.81
2022-09-28T06:13:10.507Z,99225.00
2022-09-28T06:15:46.378Z,99236.88
2022-09-28T06:18:21.048Z,99233.31
2022-09-28T06:20:57.457Z,99228.50
2022-09-28T06:23:33.001Z,99225.63
2022-09-28T06:26:07.539Z,99226.91
2022-09-28T06:28:42.977Z,99225.38
2022-09-28T06:31:18.034Z,99215.03
2022-09-28T06:33:52.556Z,99220.56
2022-09-28T06:36:26.855Z,99226.31
2022-09-28T06:39:01.075Z,99227.41
2022-09-28T06:41:35.833Z,99232.44
2022-09-28T06:44:19.420Z,99236.16
2022-09-28T06:46:57.113Z,99235.47
2022-09-28T06:49:32.660Z,99243.50
2022-09-28T06:52:09.429Z,99231.22
2022-09-28T06:54:43.755Z,99239.31
2022-09-28T06:57:19.325Z,99242.56
2022-09-28T06:59:55.772Z,99236.31
2022-09-28T07:02:31.402Z,99245.84
2022-09-28T07:05:09.605Z,99237.59
2022-09-28T07:07:44.808Z,99242.09
2022-09-28T07:10:19.162Z,99246.13
2022-09-28T07:12:53.734Z,99244.16
2022-09-28T07:15:30.727Z,99237.88
2022-09-28T07:18:07.111Z,99232.78
2022-09-28T07:20:52.646Z,99240.53
2022-09-28T07:23:30.661Z,99234.91
2022-09-28T07:26:08.864Z,99231.63
2022-09-28T07:28:44.235Z,99232.38
2022-09-28T07:31:25.317Z,99218.81
2022-09-28T07:33:59.763Z,99205.38
2022-09-28T07:36:35.237Z,99200.53
2022-09-28T07:39:11.699Z,99189.97
2022-09-28T07:41:46.295Z,99180.06
2022-09-28T07:44:22.457Z,99188.41
2022-09-28T07:46:58.104Z,99194.44
2022-09-28T07:49:33.666Z,99208.00
2022-09-28T07:52:08.165Z,99208.25
2022-09-28T07:54:42.637Z,99203.75
2022-09-28T07:57:17.086Z,99202.25
2022-09-28T07:59:53.679Z,99202.47
2022-09-28T08:02:35.249Z,99213.63
2022-09-28T08:05:10.999Z,99213.06
2022-09-28T08:07:45.171Z,99220.19
2022-09-28T08:10:20.845Z,99236.81
2022-09-28T08:12:59.250Z,99226.25
2022-09-28T08:15:37.195Z,99237.13
2022-09-28T08:18:14.063Z,99218.44
2022-09-28T08:21:06.192Z,99215.06
2022-09-28T08:23:40.434Z,99217.09
2022-09-28T08:26:15.798Z,99212.34
2022-09-28T08:28:50.313Z,99209.72
2022-09-28T08:31:27.380Z,99212.28
2022-09-28T08:34:06.148Z,99213.06
2022-09-28T08:36:43.923Z,99206.88
2022-09-28T08:39:21.507Z,99210.50
2022-09-28T08:42:13.580Z,99216.56
2022-09-28T08:44:51.397Z,99207.78
2022-09-28T08:47:47.973Z,99205.84
2022-09-28T08:50:29.858Z,99210.75
2022-09-28T08:53:14.596Z,99198.34
2022-09-28T08:55:49.405Z,99199.19
2022-09-28T08:58:28.374Z,99195.72
2022-09-28T09:01:05.851Z,99194.22
2022-09-28T09:03:42.007Z,99204.38
2022-09-28T09:06:28.554Z,99190.25
2022-09-28T09:09:11.196Z,99185.87
2022-09-28T09:11:57.447Z,99190.69
2022-09-28T09:14:59.454Z,99186.91
2022-09-28T09:17:49.274Z,99173.06
2022-09-28T09:20:34.604Z,99185.09
2022-09-28T09:23:18.576Z,99189.97
2022-09-28T09:25:56.179Z,99188.75
2022-09-28T09:28:56.297Z,99187.03
2022-09-28T09:31:53.085Z,99189.62
2022-09-28T09:34:51.029Z,99185.56
2022-09-28T09:37:48.496Z,99176.16
2022-09-28T09:40:45.557Z,99175.34
2022-09-28T09:43:42.116Z,99164.50
2022-09-28T09:46:33.580Z,99180.56
2022-09-28T09:49:16.554Z,99177.06
2022-09-28T09:51:56.024Z,99180.72
2022-09-28T09:54:36.992Z,99180.78
2022-09-28T09:57:16.940Z,99175.25
2022-09-28T09:59:52.203Z,99174.78
2022-09-28T10:02:30.108Z,99171.94
2022-09-28T10:05:20.076Z,99167.91
2022-09-28T10:08:00.006Z,99169.03
2022-09-28T10:10:38.352Z,99175.72
2022-09-28T10:13:13.807Z,99173.97
2022-09-28T10:15:50.559Z,99174.81
2022-09-28T10:18:25.101Z,99173.88
2022-09-28T10:21:14.353Z,99178.37
2022-09-28T10:23:51.409Z,99184.78
2022-09-28T10:26:34.528Z,99178.31
2022-09-28T10:29:15.893Z,99187.75
2022-09-28T10:31:51.843Z,99180.97
2022-09-28T10:34:33.049Z,99171.88
2022-09-28T10:37:12.260Z,99166.81
2022-09-28T10:39:50.763Z,99172.63
2022-09-28T10:42:29.855Z,99169.00
2022-09-28T10:45:20.741Z,99167.22
2022-09-28T10:47:56.079Z,99158.91
2022-09-28T10:50:30.144Z,99158.44
2022-09-28T10:53:20.585Z,99159.12
2022-09-28T10:56:02.038Z,99165.84
2022-09-28T10:58:39.831Z,99155.28
2022-09-28T11:01:19.047Z,99162.13
2022-09-28T11:03:57.767Z,99150.19
2022-09-28T11:06:38.181Z,99148.53
2022-09-28T11:09:30.596Z,99138.78
2022-09-28T11:12:14.637Z,99132.53
2022-09-28T11:14:52.887Z,99135.34
2022-09-28T11:17:30.720Z,99125.06
2022-09-28T11:20:31.542Z,99131.13
2022-09-28T11:23:21.671Z,99117.00
2022-09-28T11:25:58.287Z,99111.66
2022-09-28T11:28:34.572Z,99109.72
2022-09-28T11:31:10.400Z,99098.56
2022-09-28T11:33:48.376Z,99108.34
2022-09-28T11:36:36.263Z,99101.78
2022-09-28T11:39:18.467Z,99089.88
2022-09-28T11:42:03.327Z,99096.34
2022-09-28T11:44:44.731Z,99082.81
2022-09-28T11:47:46.650Z,99073.22
2022-09-28T11:50:32.442Z,99070.66
2022-09-28T11:53:16.636Z,99089.19
2022-09-28T11:55:58.611Z,99073.50
2022-09-28T11:58:36.862Z,99069.03
2022-09-28T12:01:22.563Z,99071.22
2022-09-28T12:04:05.053Z,99067.47
2022-09-28T12:06:47.693Z,99059.00
2022-09-28T12:09:28.685Z,99070.25
2022-09-28T12:12:10.471Z,99065.91
2022-09-28T12:14:46.970Z,99062.84
2022-09-28T12:17:27.942Z,99054.44
2022-09-28T12:20:08.449Z,99066.13
2022-09-28T12:22:48.050Z,99050.91
2022-09-28T12:25:24.519Z,99055.13
2022-09-28T12:28:02.276Z,99052.47
2022-09-28T12:30:40.793Z,99061.97
2022-09-28T12:33:16.452Z,99040.34
2022-09-28T12:36:03.999Z,99029.78
2022-09-28T12:39:18.169Z,99033.84
2022-09-28T12:42:07.852Z,99030.53
2022-09-28T12:44:59.452Z,99023.19
2022-09-28T12:48:03.407Z,99027.09
2022-09-28T12:50:56.006Z,99027.94
2022-09-28T12:53:53.042Z,99034.38
2022-09-28T12:56:34.599Z,99027.16
2022-09-28T12:59:19.946Z,99020.78
2022-09-28T13:02:15.566Z,99018.47
2022-09-28T13:05:20.002Z,99023.84
2022-09-28T13:08:00.269Z,99031.44
2022-09-28T13:10:43.077Z,99021.81
2022-09-28T13:13:33.968Z,99027.59
2022-09-28T13:16:18.617Z,99017.72
2022-09-28T13:19:02.192Z,99011.72
2022-09-28T13:21:42.723Z,99011.06
2022-09-28T13:24:33.555Z,99010.72
2022-09-28T13:27:16.155Z,99000.22
2022-09-28T13:29:51.842Z,99000.16
2022-09-28T13:32:29.987Z,99014.84
2022-09-28T13:35:05.532Z,98995.97
2022-09-28T13:37:40.454Z,98998.38
2022-09-28T13:40:15.347Z,98999.50
2022-09-28T13:43:18.836Z,98978.31
2022-09-28T13:45:56.828Z,98986.72
2022-09-28T13:48:44.822Z,98986.84
2022-09-28T13:51:40.045Z,98992.56
2022-09-28T13:54:29.592Z,98979.75
2022-09-28T13:57:14.679Z,98990.13
2022-09-28T14:00:02.706Z,98989.78
2022-09-28T14:02:48.743Z,98981.28
2022-09-28T14:06:04.157Z,98992.78
2022-09-28T14:08:40.700Z,98990.16
2022-09-28T14:11:44.000Z,98986.09
2022-09-28T14:14:50.523Z,98990.84
2022-09-28T14:18:00.388Z,98984.00
2022-09-28T14:20:36.716Z,98984.69
2022-09-28T14:23:41.795Z,98979.13
2022-09-28T14:26:49.305Z,98972.84
2022-09-28T14:29:31.510Z,98974.22
2022-09-28T14:32:22.356Z,98975.09
2022-09-28T14:35:01.102Z,98974.84
2022-09-28T14:37:56.488Z,98975.31
2022-09-28T14:41:12.613Z,98973.47
2022-09-28T14:44:03.692Z,98979.59
2022-09-28T14:46:43.802Z,98975.03
2022-09-28T14:49:49.028Z,98978.81
2022-09-28T14:52:41.103Z,98976.69
2022-09-28T14:55:18.673Z,98974.66
2022-09-28T14:57:54.290Z,98967.72
2022-09-28T15:00:32.065Z,98957.00
2022-09-28T15:03:12.057Z,98959.50
2022-09-28T15:05:48.262Z,98955.50
2022-09-28T15:08:23.181Z,98954.84
2022-09-28T15:11:02.020Z,98947.88
2022-09-28T15:13:37.562Z,98956.00
2022-09-28T15:16:15.631Z,98950.03
2022-09-28T15:19:15.692Z,98959.53
2022-09-28T15:21:51.196Z,98955.81
2022-09-28T15:24:28.120Z,98958.41
2022-09-28T15:27:03.718Z,98965.34
2022-09-28T15:29:38.401Z,98969.75
2022-09-28T15:32:26.147Z,98967.94
2022-09-28T15:35:11.889Z,98959.16
2022-09-28T15:37:46.224Z,98952.78
2022-09-28T15:40:30.018Z,98966.25
2022-09-28T15:43:21.370Z,98961.66
2022-09-28T15:46:06.034Z,98965.22
2022-09-28T15:48:51.997Z,98963.41
2022-09-28T15:51:28.453Z,98961.38
2022-09-28T15:54:05.422Z,98961.91
2022-09-28T15:56:52.450Z,98957.84
2022-09-28T15:59:32.717Z,98959.78
2022-09-28T16:02:13.697Z,98953.69
2022-09-28T16:04:51.828Z,98956.25
2022-09-28T16:07:34.780Z,98957.84
2022-09-28T16:10:33.904Z,98957.94
2022-09-28T16:13:20.100Z,98960.56
2022-09-28T16:16:00.324Z,98958.75
2022-09-28T16:18:38.136Z,98963.66
2022-09-28T16:21:48.136Z,98961.28
2022-09-28T16:24:24.750Z,98949.34
2022-09-28T16:27:02.678Z,98952.84
2022-09-28T16:29:40.389Z,98956.81
2022-09-28T16:32:41.785Z,98960.09
2022-09-28T16:35:22.666Z,98949.22
2022-09-28T16:38:05.668Z,98954.78
2022-09-28T16:40:42.016Z,98959.56
2022-09-28T16:43:23.460Z,98956.78
2022-09-28T16:46:00.282Z,98963.81
2022-09-28T16:48:39.545Z,98965.94
2022-09-28T16:51:13.629Z,98964.66
2022-09-28T16:54:07.627Z,98961.00
2022-09-28T16:56:41.819Z,98954.94
2022-09-28T16:59:16.197Z,98973.59
2022-09-28T17:01:50.535Z,98959.72
2022-09-28T17:04:25.239Z,98965.94
2022-09-28T17:06:59.444Z,98972.72
2022-09-28T17:09:35.701Z,98966.13
2022-09-28T17:12:24.606Z,98971.97
2022-09-28T17:15:00.384Z,98971.53
2022-09-28T17:17:34.444Z,98978.88
2022-09-28T17:20:20.376Z,98980.97
2022-09-28T17:22:54.663Z,98971.25
2022-09-28T17:25:30.604Z,98978.34
2022-09-28T17:28:06.215Z,98978.59
2022-09-28T17:30:40.689Z,98987.94
2022-09-28T17:33:15.196Z,98986.00
2022-09-28T17:35:52.508Z,98975.00
2022-09-28T17:38:26.841Z,98978.88
2022-09-28T17:41:03.157Z,98983.31
2022-09-28T17:43:37.332Z,98981.06
2022-09-28T17:46:29.325Z,98982.94
2022-09-28T17:49:05.681Z,98976.62
2022-09-28T17:51:40.203Z,98981.72
2022-09-28T17:54:16.852Z,98990.38
2022-09-28T17:56:52.682Z,98989.44
2022-09-28T17:59:28.640Z,98988.97
2022-09-28T18:02:02.983Z,98990.47
2022-09-28T18:04:51.795Z,98989.94
2022-09-28T18:07:28.633Z,98990.69
2022-09-28T18:10:03.153Z,98996.84
2022-09-28T18:12:38.623Z,98999.72
2022-09-28T18:15:13.275Z,99005.03
2022-09-28T18:17:47.474Z,99002.84
2022-09-28T18:20:21.977Z,99000.84
2022-09-28T18:22:56.188Z,99001.19
2022-09-28T18:25:31.088Z,99003.22
2022-09-28T18:28:06.524Z,98997.53
2022-09-28T18:30:42.444Z,99004.13
2022-09-28T18:33:16.561Z,99008.50
2022-09-28T18:35:53.200Z,99009.72
2022-09-28T18:38:27.405Z,99013.81
2022-09-28T18:41:08.812Z,99014.69
2022-09-28T18:43:48.961Z,99019.69
2022-09-28T18:46:27.142Z,99023.38
2022-09-28T18:49:01.383Z,99018.16
2022-09-28T18:51:35.894Z,99019.47
2022-09-28T18:54:10.073Z,99024.78
2022-09-28T18:56:44.604Z,99019.97
2022-09-28T18:59:20.457Z,99023.72
2022-09-28T19:01:55.454Z,99030.78
2022-09-28T19:04:29.665Z,99027.53
2022-09-28T19:07:04.133Z,99021.19
2022-09-28T19:09:40.635Z,99021.84
2022-09-28T19:12:15.826Z,99018.37
2022-09-28T19:14:51.620Z,99016.41
2022-09-28T19:17:26.375Z,99018.63
2022-09-28T19:20:00.688Z,99014.16
2022-09-28T19:22:35.381Z,99023.09
2022-09-28T19:25:09.770Z,99028.00
2022-09-28T19:27:44.161Z,99018.78
2022-09-28T19:30:19.723Z,99016.56
2022-09-28T19:32:54.105Z,99027.56
2022-09-28T19:35:28.186Z,99015.75
2022-09-28T19:38:02.580Z,99009.16
2022-09-28T19:40:38.268Z,99012.53
2022-09-28T19:43:12.789Z,99007.69
2022-09-28T19:45:52.113Z,99009.19
2022-09-28T19:48:27.891Z,99001.97
2022-09-28T19:51:03.346Z,98998.56
2022-09-28T19:53:38.000Z,99001.84
2022-09-28T19:56:12.227Z,98995.31
2022-09-28T19:58:46.685Z,98992.50
2022-09-28T20:01:22.442Z,98992.03
2022-09-28T20:03:57.165Z,98996.25
2022-09-28T20:06:33.132Z,98979.87
2022-09-28T20:09:08.005Z,98982.00
2022-09-28T20:11:42.173Z,98982.00
2022-09-28T20:14:18.732Z,98978.25
2022-09-28T20:16:54.241Z,98975.25
2022-09-28T20:19:28.614Z,98978.13
2022-09-28T20:22:02.834Z,98969.69
2022-09-28T20:24:37.500Z,98972.06
2022-09-28T20:27:11.539Z,98972.69
2022-09-28T20:29:45.976Z,98973.94
2022-09-28T20:32:21.445Z,98977.38
2022-09-28T20:37:17.584Z,98968.75
2022-09-28T20:39:52.240Z,98968.75
2022-09-28T20:42:26.273Z,98971.53
2022-09-28T20:45:00.673Z,98967.97
2022-09-28T20:47:34.866Z,98973.66
2022-09-28T20:50:11.437Z,98973.94
2022-09-28T20:52:46.798Z,98965.50
2022-09-28T20:55:21.135Z,98973.66
2022-09-28T20:57:55.178Z,98957.25
2022-09-28T21:00:29.734Z,98968.56
2022-09-28T21:03:03.789Z,98974.47
2022-09-28T21:05:38.259Z,98966.06
2022-09-28T21:08:14.370Z,98964.09
2022-09-28T21:10:48.734Z,98966.97
2022-09-28T21:13:23.137Z,98976.28
2022-09-28T21:16:02.996Z,98963.81
2022-09-28T21:18:37.028Z,98952.72
2022-09-28T21:21:14.135Z,98960.03
2022-09-28T21:23:52.855Z,98949.66
2022-09-28T21:26:28.798Z,98949.63
2022-09-28T21:29:04.642Z,98952.28
2022-09-28T21:31:42.000Z,98945.97
2022-09-28T21:34:19.343Z,98940.47
2022-09-28T21:36:54.529Z,98947.28
2022-09-28T21:39:30.023Z,98946.25
2022-09-28T21:42:04.353Z,98948.97
2022-09-28T21:44:38.406Z,98951.78
2022-09-28T21:47:12.696Z,98945.69
2022-09-28T21:49:49.027Z,98941.19
2022-09-28T21:52:23.360Z,98941.66
2022-09-28T21:54:58.784Z,98945.69
2022-09-28T21:57:33.745Z,98963.72
2022-09-28T22:00:12.087Z,98956.59
2022-09-28T22:02:46.898Z,98957.13
2022-09-28T22:05:20.974Z,98955.63
2022-09-28T22:07:55.504Z,98953.66
2022-09-28T22:10:30.899Z,98951.91
2022-09-28T22:13:05.479Z,98950.19
2022-09-28T22:15:39.636Z,98953.12
2022-09-28T22:18:13.936Z,98951.56
2022-09-28T22:20:48.033Z,98955.63
2022-09-28T22:23:23.072Z,98963.66
2022-09-28T22:26:02.334Z,98956.75
2022-09-28T22:28:36.940Z,98944.94
2022-09-28T22:31:11.096Z,98953.41
2022-09-28T22:33:45.541Z,98942.63
2022-09-28T22:36:20.044Z,98946.91
2022-09-28T22:38:55.687Z,98945.34
2022-09-28T22:41:32.185Z,98954.22
2022-09-28T22:44:06.672Z,98945.12
2022-09-28T22:46:40.982Z,98947.56
2022-09-28T22:49:15.612Z,98955.09
2022-09-28T22:51:49.596Z,98956.37
2022-09-28T22:54:23.936Z,98954.69
2022-09-28T22:56:59.351Z,98951.78
2022-09-28T22:59:33.833Z,98952.78
2022-09-28T23:02:07.887Z,98944.84
2022-09-28T23:04:42.226Z,98944.53
2022-09-28T23:07:16.265Z,98946.88
2022-09-28T23:09:50.753Z,98948.78
2022-09-28T23:12:26.104Z,98956.34
2022-09-28T23:15:00.509Z,98952.75
2022-09-28T23:17:34.510Z,98959.84
2022-09-28T23:20:09.779Z,98961.56
2022-09-28T23:22:47.112Z,98967.00
2022-09-28T23:25:21.587Z,98960.44
2022-09-28T23:27:57.018Z,98958.59
2022-09-28T23:30:31.371Z,98958.25
2022-09-28T23:33:05.454Z,98964.94
2022-09-28T23:35:39.767Z,98966.81
2022-09-28T23:38:14.710Z,98965.88
2022-09-28T23:40:49.168Z,98976.00
2022-09-28T23:43:24.709Z,98967.06
2022-09-28T23:45:59.086Z,98979.78
2022-09-28T23:48:33.523Z,98973.09
2022-09-28T23:51:07.927Z,98981.63
2022-09-28T23:53:44.291Z,98978.56
2022-09-28T23:56:18.571Z,98971.97
2022-09-28T23:58:53.965Z,98970.16
